Jinghong, China
Current Conditions -  °F | °C
As of 11:00 PM on Monday 26 Jan 2015 (Local Time) from VTCT Reporting Station
Clear Clear  
Wind Chill: 63°   Ceiling: Unl
Heat Index: 63°   Visibility: 6mi
Dew Point: 57°   Wind: 5mph
Humidity: 82%   Direction: 270°W
Pressure: 30"   Gusts: NA
Location:  22.02°N, 100.8°E
Report Text: VTCT 261500Z 27004KT CAVOK 17/14 Q1016 A3002RMK/RWY03 INFO P
Loading
Personal Weather Stations






























Interactive Weather Map New forecast layout! Learn more

10-Day Weather Forecast

Advertisements
Track Severe Weather on mobile